sensor_id;sensor_type;location;lat;lon;timestamp;temperature;humidity
10133;DHT22;5106;50.926;7.080;2022-09-09T00:07:00;17.10;84.10
10133;DHT22;5106;50.926;7.080;2022-09-09T00:09:31;17.10;84.10
10133;DHT22;5106;50.926;7.080;2022-09-09T00:12:12;17.10;84.00
10133;DHT22;5106;50.926;7.080;2022-09-09T00:14:50;17.10;84.00
10133;DHT22;5106;50.926;7.080;2022-09-09T00:20:01;17.00;84.10
10133;DHT22;5106;50.926;7.080;2022-09-09T00:22:30;17.00;84.10
10133;DHT22;5106;50.926;7.080;2022-09-09T00:25:11;17.00;84.10
10133;DHT22;5106;50.926;7.080;2022-09-09T00:27:45;17.00;84.10
10133;DHT22;5106;50.926;7.080;2022-09-09T00:30:22;16.90;84.20
10133;DHT22;5106;50.926;7.080;2022-09-09T00:33:12;16.90;84.20
10133;DHT22;5106;50.926;7.080;2022-09-09T00:36:09;16.90;84.20
10133;DHT22;5106;50.926;7.080;2022-09-09T00:38:41;16.90;84.20
10133;DHT22;5106;50.926;7.080;2022-09-09T00:41:50;16.90;84.20
10133;DHT22;5106;50.926;7.080;2022-09-09T00:44:32;16.90;84.20
10133;DHT22;5106;50.926;7.080;2022-09-09T00:57:35;16.80;84.30
10133;DHT22;5106;50.926;7.080;2022-09-09T01:00:17;16.80;84.40
10133;DHT22;5106;50.926;7.080;2022-09-09T01:03:10;16.90;84.40
10133;DHT22;5106;50.926;7.080;2022-09-09T01:05:59;16.90;84.50
10133;DHT22;5106;50.926;7.080;2022-09-09T01:16:46;17.00;84.30
10133;DHT22;5106;50.926;7.080;2022-09-09T01:19:23;17.00;84.20
10133;DHT22;5106;50.926;7.080;2022-09-09T01:21:59;16.90;84.10
10133;DHT22;5106;50.926;7.080;2022-09-09T01:24:36;16.90;84.20
10133;DHT22;5106;50.926;7.080;2022-09-09T01:27:06;16.90;84.10
10133;DHT22;5106;50.926;7.080;2022-09-09T01:29:32;16.90;84.10
10133;DHT22;5106;50.926;7.080;2022-09-09T01:32:37;16.90;84.10
10133;DHT22;5106;50.926;7.080;2022-09-09T01:34:49;16.90;84.10
10133;DHT22;5106;50.926;7.080;2022-09-09T01:37:15;16.90;84.10
10133;DHT22;5106;50.926;7.080;2022-09-09T01:39:43;16.90;84.10
10133;DHT22;5106;50.926;7.080;2022-09-09T01:42:13;16.80;84.00
10133;DHT22;5106;50.926;7.080;2022-09-09T01:44:39;16.80;84.10
10133;DHT22;5106;50.926;7.080;2022-09-09T01:47:05;16.80;84.10
10133;DHT22;5106;50.926;7.080;2022-09-09T01:49:32;16.80;83.90
10133;DHT22;5106;50.926;7.080;2022-09-09T01:52:01;16.80;84.00
10133;DHT22;5106;50.926;7.080;2022-09-09T01:54:30;16.80;83.90
10133;DHT22;5106;50.926;7.080;2022-09-09T02:10:41;16.80;83.50
10133;DHT22;5106;50.926;7.080;2022-09-09T02:13:14;16.90;83.40
10133;DHT22;5106;50.926;7.080;2022-09-09T02:15:47;16.90;83.50
10133;DHT22;5106;50.926;7.080;2022-09-09T02:18:21;16.90;83.50
10133;DHT22;5106;50.926;7.080;2022-09-09T02:20:49;16.90;83.40
10133;DHT22;5106;50.926;7.080;2022-09-09T02:23:16;16.90;83.50
10133;DHT22;5106;50.926;7.080;2022-09-09T02:25:43;16.90;83.50
10133;DHT22;5106;50.926;7.080;2022-09-09T02:28:10;16.90;83.30
10133;DHT22;5106;50.926;7.080;2022-09-09T02:30:39;16.90;83.30
10133;DHT22;5106;50.926;7.080;2022-09-09T02:33:07;16.90;83.30
10133;DHT22;5106;50.926;7.080;2022-09-09T02:35:36;16.90;83.30
10133;DHT22;5106;50.926;7.080;2022-09-09T02:38:06;16.90;83.30
10133;DHT22;5106;50.926;7.080;2022-09-09T02:40:33;17.00;83.30
10133;DHT22;5106;50.926;7.080;2022-09-09T02:42:59;17.00;83.30
10133;DHT22;5106;50.926;7.080;2022-09-09T02:45:31;17.00;83.20
10133;DHT22;5106;50.926;7.080;2022-09-09T02:48:30;17.00;83.20
10133;DHT22;5106;50.926;7.080;2022-09-09T02:51:08;17.00;83.20
10133;DHT22;5106;50.926;7.080;2022-09-09T02:53:59;17.00;83.10
10133;DHT22;5106;50.926;7.080;2022-09-09T02:56:31;17.00;83.20
10133;DHT22;5106;50.926;7.080;2022-09-09T02:58:59;17.00;83.20
10133;DHT22;5106;50.926;7.080;2022-09-09T03:01:24;17.00;83.10
10133;DHT22;5106;50.926;7.080;2022-09-09T03:03:50;17.00;83.20
10133;DHT22;5106;50.926;7.080;2022-09-09T03:06:16;17.00;83.20
10133;DHT22;5106;50.926;7.080;2022-09-09T03:08:42;17.00;83.20
10133;DHT22;5106;50.926;7.080;2022-09-09T03:11:08;17.00;83.30
10133;DHT22;5106;50.926;7.080;2022-09-09T03:13:34;17.00;83.30
10133;DHT22;5106;50.926;7.080;2022-09-09T03:16:00;17.00;83.40
10133;DHT22;5106;50.926;7.080;2022-09-09T03:18:25;17.00;83.40
10133;DHT22;5106;50.926;7.080;2022-09-09T03:20:52;17.00;83.40
10133;DHT22;5106;50.926;7.080;2022-09-09T03:23:19;17.00;83.40
10133;DHT22;5106;50.926;7.080;2022-09-09T03:25:51;17.10;83.40
10133;DHT22;5106;50.926;7.080;2022-09-09T03:28:17;17.10;83.50
10133;DHT22;5106;50.926;7.080;2022-09-09T03:30:43;17.00;83.50
10133;DHT22;5106;50.926;7.080;2022-09-09T03:33:09;17.00;83.60
10133;DHT22;5106;50.926;7.080;2022-09-09T03:35:34;17.00;83.50
10133;DHT22;5106;50.926;7.080;2022-09-09T03:38:00;17.00;83.30
10133;DHT22;5106;50.926;7.080;2022-09-09T03:40:26;17.10;83.30
10133;DHT22;5106;50.926;7.080;2022-09-09T03:42:52;17.10;83.20
10133;DHT22;5106;50.926;7.080;2022-09-09T03:45:18;17.00;83.00
10133;DHT22;5106;50.926;7.080;2022-09-09T03:47:43;17.00;83.00
10133;DHT22;5106;50.926;7.080;2022-09-09T03:50:10;17.00;83.00
10133;DHT22;5106;50.926;7.080;2022-09-09T03:52:37;17.00;82.80
10133;DHT22;5106;50.926;7.080;2022-09-09T03:55:04;17.00;82.80
10133;DHT22;5106;50.926;7.080;2022-09-09T03:57:30;17.00;82.90
10133;DHT22;5106;50.926;7.080;2022-09-09T03:59:57;17.00;82.80
10133;DHT22;5106;50.926;7.080;2022-09-09T04:02:23;17.00;82.80
10133;DHT22;5106;50.926;7.080;2022-09-09T04:04:49;17.00;82.80
10133;DHT22;5106;50.926;7.080;2022-09-09T04:07:14;17.00;82.90
10133;DHT22;5106;50.926;7.080;2022-09-09T04:09:40;17.10;83.00
10133;DHT22;5106;50.926;7.080;2022-09-09T04:12:05;17.10;82.70
10133;DHT22;5106;50.926;7.080;2022-09-09T04:14:32;17.10;82.80
10133;DHT22;5106;50.926;7.080;2022-09-09T04:16:57;17.10;82.90
10133;DHT22;5106;50.926;7.080;2022-09-09T04:19:25;17.10;82.80
10133;DHT22;5106;50.926;7.080;2022-09-09T04:21:51;17.10;82.90
10133;DHT22;5106;50.926;7.080;2022-09-09T04:24:17;17.10;83.00
10133;DHT22;5106;50.926;7.080;2022-09-09T04:26:43;17.10;83.00
10133;DHT22;5106;50.926;7.080;2022-09-09T04:29:08;17.10;83.00
10133;DHT22;5106;50.926;7.080;2022-09-09T04:31:35;17.10;83.00
10133;DHT22;5106;50.926;7.080;2022-09-09T04:34:01;17.10;83.00
10133;DHT22;5106;50.926;7.080;2022-09-09T04:36:32;17.10;83.00
10133;DHT22;5106;50.926;7.080;2022-09-09T04:38:57;17.10;83.10
10133;DHT22;5106;50.926;7.080;2022-09-09T04:41:23;17.10;83.30
10133;DHT22;5106;50.926;7.080;2022-09-09T04:43:49;17.10;83.40
10133;DHT22;5106;50.926;7.080;2022-09-09T04:46:15;17.10;83.30
10133;DHT22;5106;50.926;7.080;2022-09-09T04:48:43;17.10;83.30
10133;DHT22;5106;50.926;7.080;2022-09-09T04:51:12;17.10;83.20
10133;DHT22;5106;50.926;7.080;2022-09-09T04:53:38;17.00;83.20
10133;DHT22;5106;50.926;7.080;2022-09-09T04:56:16;17.00;83.30
10133;DHT22;5106;50.926;7.080;2022-09-09T04:58:42;17.00;83.10
10133;DHT22;5106;50.926;7.080;2022-09-09T05:01:15;17.00;83.00
10133;DHT22;5106;50.926;7.080;2022-09-09T05:03:42;17.00;83.00
10133;DHT22;5106;50.926;7.080;2022-09-09T05:06:16;17.00;82.80
10133;DHT22;5106;50.926;7.080;2022-09-09T05:08:43;17.00;83.00
10133;DHT22;5106;50.926;7.080;2022-09-09T05:13:48;17.00;83.20
10133;DHT22;5106;50.926;7.080;2022-09-09T05:16:15;17.00;83.20
10133;DHT22;5106;50.926;7.080;2022-09-09T05:18:42;17.00;83.20
10133;DHT22;5106;50.926;7.080;2022-09-09T05:21:11;17.00;83.20
10133;DHT22;5106;50.926;7.080;2022-09-09T05:23:38;17.00;83.10
10133;DHT22;5106;50.926;7.080;2022-09-09T05:26:05;17.00;83.00
10133;DHT22;5106;50.926;7.080;2022-09-09T05:28:33;17.10;83.10
10133;DHT22;5106;50.926;7.080;2022-09-09T05:31:02;17.10;83.10
10133;DHT22;5106;50.926;7.080;2022-09-09T05:33:34;17.10;83.10
10133;DHT22;5106;50.926;7.080;2022-09-09T05:36:04;17.10;83.00
10133;DHT22;5106;50.926;7.080;2022-09-09T05:38:31;17.10;83.20
10133;DHT22;5106;50.926;7.080;2022-09-09T05:40:58;17.00;83.30
10133;DHT22;5106;50.926;7.080;2022-09-09T05:43:25;17.10;83.50
10133;DHT22;5106;50.926;7.080;2022-09-09T05:46:01;17.00;83.50
10133;DHT22;5106;50.926;7.080;2022-09-09T05:48:30;17.10;83.50
10133;DHT22;5106;50.926;7.080;2022-09-09T05:50:56;17.10;83.50
10133;DHT22;5106;50.926;7.080;2022-09-09T05:53:22;17.10;83.10
10133;DHT22;5106;50.926;7.080;2022-09-09T05:55:47;17.10;83.00
10133;DHT22;5106;50.926;7.080;2022-09-09T05:58:13;17.10;82.90
10133;DHT22;5106;50.926;7.080;2022-09-09T06:00:40;17.10;82.50
10133;DHT22;5106;50.926;7.080;2022-09-09T06:03:06;17.20;82.50
10133;DHT22;5106;50.926;7.080;2022-09-09T06:05:31;17.20;82.00
10133;DHT22;5106;50.926;7.080;2022-09-09T06:07:59;17.20;82.00
10133;DHT22;5106;50.926;7.080;2022-09-09T06:10:25;17.30;81.90
10133;DHT22;5106;50.926;7.080;2022-09-09T06:12:52;17.30;81.80
10133;DHT22;5106;50.926;7.080;2022-09-09T06:15:18;17.40;81.90
10133;DHT22;5106;50.926;7.080;2022-09-09T06:17:43;17.40;81.40
10133;DHT22;5106;50.926;7.080;2022-09-09T06:20:10;17.50;81.20
10133;DHT22;5106;50.926;7.080;2022-09-09T06:22:38;17.50;81.30
10133;DHT22;5106;50.926;7.080;2022-09-09T06:25:04;17.50;81.00
10133;DHT22;5106;50.926;7.080;2022-09-09T06:27:30;17.60;80.90
10133;DHT22;5106;50.926;7.080;2022-09-09T06:29:56;17.60;81.30
10133;DHT22;5106;50.926;7.080;2022-09-09T06:32:21;17.60;80.60
10133;DHT22;5106;50.926;7.080;2022-09-09T06:34:47;17.60;80.80
10133;DHT22;5106;50.926;7.080;2022-09-09T06:37:14;17.60;80.50
10133;DHT22;5106;50.926;7.080;2022-09-09T06:39:40;17.60;80.10
10133;DHT22;5106;50.926;7.080;2022-09-09T06:42:06;17.60;80.60
10133;DHT22;5106;50.926;7.080;2022-09-09T06:44:34;17.60;80.80
10133;DHT22;5106;50.926;7.080;2022-09-09T06:47:00;17.60;80.50
10133;DHT22;5106;50.926;7.080;2022-09-09T06:49:26;17.60;80.30
10133;DHT22;5106;50.926;7.080;2022-09-09T06:51:51;17.60;80.30
10133;DHT22;5106;50.926;7.080;2022-09-09T06:54:17;17.60;79.70
10133;DHT22;5106;50.926;7.080;2022-09-09T06:56:43;17.60;79.90
10133;DHT22;5106;50.926;7.080;2022-09-09T06:59:11;17.60;80.10
10133;DHT22;5106;50.926;7.080;2022-09-09T07:01:41;17.60;80.60
10133;DHT22;5106;50.926;7.080;2022-09-09T07:04:09;17.60;79.90
10133;DHT22;5106;50.926;7.080;2022-09-09T07:06:44;17.60;80.10
10133;DHT22;5106;50.926;7.080;2022-09-09T07:09:13;17.60;80.50
10133;DHT22;5106;50.926;7.080;2022-09-09T07:14:05;17.80;80.00
10133;DHT22;5106;50.926;7.080;2022-09-09T07:16:30;17.90;79.60
10133;DHT22;5106;50.926;7.080;2022-09-09T07:18:58;18.00;79.90
10133;DHT22;5106;50.926;7.080;2022-09-09T07:21:27;18.10;79.00
10133;DHT22;5106;50.926;7.080;2022-09-09T07:23:53;18.20;78.30
10133;DHT22;5106;50.926;7.080;2022-09-09T07:26:22;18.40;78.80
10133;DHT22;5106;50.926;7.080;2022-09-09T07:28:48;18.50;77.20
10133;DHT22;5106;50.926;7.080;2022-09-09T07:31:23;18.60;76.30
10133;DHT22;5106;50.926;7.080;2022-09-09T07:33:49;18.70;76.10
10133;DHT22;5106;50.926;7.080;2022-09-09T07:36:20;18.70;76.70
10133;DHT22;5106;50.926;7.080;2022-09-09T07:38:52;18.80;76.60
10133;DHT22;5106;50.926;7.080;2022-09-09T07:43:49;18.90;74.00
10133;DHT22;5106;50.926;7.080;2022-09-09T07:46:16;18.90;74.90
10133;DHT22;5106;50.926;7.080;2022-09-09T07:48:50;19.00;74.40
10133;DHT22;5106;50.926;7.080;2022-09-09T07:51:25;19.20;74.00
10133;DHT22;5106;50.926;7.080;2022-09-09T07:53:56;19.30;74.40
10133;DHT22;5106;50.926;7.080;2022-09-09T07:56:26;19.40;74.30
10133;DHT22;5106;50.926;7.080;2022-09-09T07:58:54;19.40;72.70
10133;DHT22;5106;50.926;7.080;2022-09-09T08:04:00;19.40;73.10
10133;DHT22;5106;50.926;7.080;2022-09-09T08:06:28;19.40;73.20
10133;DHT22;5106;50.926;7.080;2022-09-09T08:08:54;19.30;72.70
10133;DHT22;5106;50.926;7.080;2022-09-09T08:11:20;19.20;72.30
10133;DHT22;5106;50.926;7.080;2022-09-09T08:13:46;19.20;72.90
10133;DHT22;5106;50.926;7.080;2022-09-09T08:16:14;19.20;73.50
10133;DHT22;5106;50.926;7.080;2022-09-09T08:18:39;19.10;71.90
10133;DHT22;5106;50.926;7.080;2022-09-09T08:21:07;19.10;72.00
10133;DHT22;5106;50.926;7.080;2022-09-09T08:23:34;19.20;72.20
10133;DHT22;5106;50.926;7.080;2022-09-09T08:26:09;19.20;71.80
10133;DHT22;5106;50.926;7.080;2022-09-09T08:28:35;19.10;71.40
10133;DHT22;5106;50.926;7.080;2022-09-09T08:31:12;19.20;71.40
10133;DHT22;5106;50.926;7.080;2022-09-09T08:33:39;19.20;72.20
10133;DHT22;5106;50.926;7.080;2022-09-09T08:36:05;19.20;71.50
10133;DHT22;5106;50.926;7.080;2022-09-09T08:38:32;19.20;71.10
10133;DHT22;5106;50.926;7.080;2022-09-09T08:41:11;19.30;70.80
10133;DHT22;5106;50.926;7.080;2022-09-09T08:43:41;19.30;71.10
10133;DHT22;5106;50.926;7.080;2022-09-09T08:46:22;19.30;71.30
10133;DHT22;5106;50.926;7.080;2022-09-09T08:51:42;19.40;70.40
10133;DHT22;5106;50.926;7.080;2022-09-09T08:54:09;19.50;70.40
10133;DHT22;5106;50.926;7.080;2022-09-09T08:56:36;19.50;69.60
10133;DHT22;5106;50.926;7.080;2022-09-09T08:59:02;19.50;70.40
10133;DHT22;5106;50.926;7.080;2022-09-09T09:12:25;19.60;69.30
10133;DHT22;5106;50.926;7.080;2022-09-09T09:14:52;19.70;68.70
10133;DHT22;5106;50.926;7.080;2022-09-09T09:17:18;19.80;69.60
10133;DHT22;5106;50.926;7.080;2022-09-09T09:19:45;19.80;68.00
10133;DHT22;5106;50.926;7.080;2022-09-09T09:24:55;19.90;68.90
10133;DHT22;5106;50.926;7.080;2022-09-09T09:27:32;20.00;67.90
10133;DHT22;5106;50.926;7.080;2022-09-09T09:30:00;20.00;68.60
10133;DHT22;5106;50.926;7.080;2022-09-09T09:32:30;20.00;67.70
10133;DHT22;5106;50.926;7.080;2022-09-09T09:34:58;20.00;67.70
10133;DHT22;5106;50.926;7.080;2022-09-09T09:37:29;20.00;68.30
10133;DHT22;5106;50.926;7.080;2022-09-09T09:39:55;19.90;68.00
10133;DHT22;5106;50.926;7.080;2022-09-09T09:42:21;19.80;68.00
10133;DHT22;5106;50.926;7.080;2022-09-09T09:44:47;19.70;68.30
10133;DHT22;5106;50.926;7.080;2022-09-09T09:47:19;19.70;68.50
10133;DHT22;5106;50.926;7.080;2022-09-09T09:49:56;19.60;68.40
10133;DHT22;5106;50.926;7.080;2022-09-09T09:52:26;19.60;69.50
10133;DHT22;5106;50.926;7.080;2022-09-09T09:54:53;19.50;69.50
10133;DHT22;5106;50.926;7.080;2022-09-09T09:57:27;19.50;69.90
10133;DHT22;5106;50.926;7.080;2022-09-09T10:00:23;19.50;68.50
10133;DHT22;5106;50.926;7.080;2022-09-09T10:02:50;19.50;69.00
10133;DHT22;5106;50.926;7.080;2022-09-09T10:07:47;19.50;68.90
10133;DHT22;5106;50.926;7.080;2022-09-09T10:10:23;19.60;69.60
10133;DHT22;5106;50.926;7.080;2022-09-09T10:36:44;19.90;66.80
10133;DHT22;5106;50.926;7.080;2022-09-09T10:39:34;19.90;67.20
10133;DHT22;5106;50.926;7.080;2022-09-09T10:42:08;20.00;67.50
10133;DHT22;5106;50.926;7.080;2022-09-09T10:50:03;20.00;67.10
10133;DHT22;5106;50.926;7.080;2022-09-09T10:55:20;20.10;67.20
10133;DHT22;5106;50.926;7.080;2022-09-09T10:57:50;20.10;66.70
10133;DHT22;5106;50.926;7.080;2022-09-09T11:00:40;20.10;67.20
10133;DHT22;5106;50.926;7.080;2022-09-09T11:05:46;20.30;66.70
10133;DHT22;5106;50.926;7.080;2022-09-09T11:08:19;20.40;66.00
10133;DHT22;5106;50.926;7.080;2022-09-09T11:18:39;20.40;64.70
10133;DHT22;5106;50.926;7.080;2022-09-09T11:21:13;20.50;65.50
10133;DHT22;5106;50.926;7.080;2022-09-09T11:23:45;20.50;66.40
10133;DHT22;5106;50.926;7.080;2022-09-09T11:26:22;20.70;66.00
10133;DHT22;5106;50.926;7.080;2022-09-09T11:31:55;20.80;65.30
10133;DHT22;5106;50.926;7.080;2022-09-09T11:42:34;20.70;65.10
10133;DHT22;5106;50.926;7.080;2022-09-09T11:45:10;20.70;64.40
10133;DHT22;5106;50.926;7.080;2022-09-09T11:47:36;20.70;64.10
10133;DHT22;5106;50.926;7.080;2022-09-09T11:52:43;20.70;64.00
10133;DHT22;5106;50.926;7.080;2022-09-09T12:03:08;20.70;64.80
10133;DHT22;5106;50.926;7.080;2022-09-09T12:05:52;20.80;64.30
10133;DHT22;5106;50.926;7.080;2022-09-09T12:08:27;20.70;63.90
10133;DHT22;5106;50.926;7.080;2022-09-09T12:10:56;20.80;65.00
10133;DHT22;5106;50.926;7.080;2022-09-09T12:13:26;20.80;64.90
10133;DHT22;5106;50.926;7.080;2022-09-09T12:15:53;20.80;64.50
10133;DHT22;5106;50.926;7.080;2022-09-09T12:18:38;20.80;64.30
10133;DHT22;5106;50.926;7.080;2022-09-09T12:23:55;20.70;63.00
10133;DHT22;5106;50.926;7.080;2022-09-09T12:26:41;20.70;64.20
10133;DHT22;5106;50.926;7.080;2022-09-09T12:34:33;20.70;64.10
10133;DHT22;5106;50.926;7.080;2022-09-09T12:37:18;20.70;63.40
10133;DHT22;5106;50.926;7.080;2022-09-09T12:39:58;20.80;64.10
10133;DHT22;5106;50.926;7.080;2022-09-09T12:42:25;20.80;63.30
10133;DHT22;5106;50.926;7.080;2022-09-09T12:45:03;20.80;63.70
10133;DHT22;5106;50.926;7.080;2022-09-09T12:47:57;20.80;64.00
10133;DHT22;5106;50.926;7.080;2022-09-09T12:50:31;20.80;63.90
10133;DHT22;5106;50.926;7.080;2022-09-09T12:53:00;20.80;63.60
10133;DHT22;5106;50.926;7.080;2022-09-09T12:55:37;20.70;62.80
10133;DHT22;5106;50.926;7.080;2022-09-09T12:58:05;20.70;64.30
10133;DHT22;5106;50.926;7.080;2022-09-09T13:00:32;20.70;64.80
10133;DHT22;5106;50.926;7.080;2022-09-09T13:03:00;20.70;63.90
10133;DHT22;5106;50.926;7.080;2022-09-09T13:05:37;20.70;64.20
10133;DHT22;5106;50.926;7.080;2022-09-09T13:08:05;20.70;64.70
10133;DHT22;5106;50.926;7.080;2022-09-09T13:10:39;20.90;63.60
10133;DHT22;5106;50.926;7.080;2022-09-09T13:13:17;21.00;63.60
10133;DHT22;5106;50.926;7.080;2022-09-09T13:16:05;21.10;64.70
10133;DHT22;5106;50.926;7.080;2022-09-09T13:18:34;21.10;63.40
10133;DHT22;5106;50.926;7.080;2022-09-09T13:21:01;21.10;63.70
10133;DHT22;5106;50.926;7.080;2022-09-09T13:23:30;21.10;63.20
10133;DHT22;5106;50.926;7.080;2022-09-09T13:25:58;21.20;64.60
10133;DHT22;5106;50.926;7.080;2022-09-09T13:28:26;21.30;64.50
10133;DHT22;5106;50.926;7.080;2022-09-09T13:33:36;21.70;63.30
10133;DHT22;5106;50.926;7.080;2022-09-09T13:36:08;21.90;62.60
10133;DHT22;5106;50.926;7.080;2022-09-09T13:41:42;22.10;62.00
10133;DHT22;5106;50.926;7.080;2022-09-09T13:44:27;22.20;62.90
10133;DHT22;5106;50.926;7.080;2022-09-09T13:47:20;22.30;62.30
10133;DHT22;5106;50.926;7.080;2022-09-09T13:49:48;22.20;61.70
10133;DHT22;5106;50.926;7.080;2022-09-09T13:52:15;22.20;62.50
10133;DHT22;5106;50.926;7.080;2022-09-09T13:54:42;22.10;63.30
10133;DHT22;5106;50.926;7.080;2022-09-09T13:57:26;22.00;63.00
10133;DHT22;5106;50.926;7.080;2022-09-09T13:59:53;21.90;63.80
10133;DHT22;5106;50.926;7.080;2022-09-09T14:02:21;21.80;62.70
10133;DHT22;5106;50.926;7.080;2022-09-09T14:04:48;21.80;62.30
10133;DHT22;5106;50.926;7.080;2022-09-09T14:07:17;22.00;62.10
10133;DHT22;5106;50.926;7.080;2022-09-09T14:09:44;22.20;62.90
10133;DHT22;5106;50.926;7.080;2022-09-09T14:12:11;22.20;62.70
10133;DHT22;5106;50.926;7.080;2022-09-09T14:14:37;22.30;62.60
10133;DHT22;5106;50.926;7.080;2022-09-09T14:17:03;22.10;62.60
10133;DHT22;5106;50.926;7.080;2022-09-09T14:19:29;22.00;62.50
10133;DHT22;5106;50.926;7.080;2022-09-09T14:21:56;21.90;63.90
10133;DHT22;5106;50.926;7.080;2022-09-09T14:24:22;21.90;63.70
10133;DHT22;5106;50.926;7.080;2022-09-09T14:26:47;21.90;63.70
10133;DHT22;5106;50.926;7.080;2022-09-09T14:29:13;21.90;64.50
10133;DHT22;5106;50.926;7.080;2022-09-09T14:31:38;21.80;64.40
10133;DHT22;5106;50.926;7.080;2022-09-09T14:34:04;21.80;64.90
10133;DHT22;5106;50.926;7.080;2022-09-09T14:36:31;21.80;65.00
10133;DHT22;5106;50.926;7.080;2022-09-09T14:38:57;21.70;64.80
10133;DHT22;5106;50.926;7.080;2022-09-09T14:41:23;21.50;65.40
10133;DHT22;5106;50.926;7.080;2022-09-09T14:43:50;21.30;65.30
10133;DHT22;5106;50.926;7.080;2022-09-09T14:46:18;21.20;65.70
10133;DHT22;5106;50.926;7.080;2022-09-09T14:48:45;21.00;66.70
10133;DHT22;5106;50.926;7.080;2022-09-09T14:51:17;21.00;67.30
10133;DHT22;5106;50.926;7.080;2022-09-09T14:53:46;20.90;66.60
10133;DHT22;5106;50.926;7.080;2022-09-09T14:56:17;20.80;67.70
10133;DHT22;5106;50.926;7.080;2022-09-09T14:58:44;20.70;67.30
10133;DHT22;5106;50.926;7.080;2022-09-09T15:01:12;20.70;67.40
10133;DHT22;5106;50.926;7.080;2022-09-09T15:03:40;20.60;67.60
10133;DHT22;5106;50.926;7.080;2022-09-09T15:06:11;20.40;71.00
10133;DHT22;5106;50.926;7.080;2022-09-09T15:08:40;19.80;74.70
10133;DHT22;5106;50.926;7.080;2022-09-09T15:11:07;19.40;76.80
10133;DHT22;5106;50.926;7.080;2022-09-09T15:13:34;19.10;78.10
10133;DHT22;5106;50.926;7.080;2022-09-09T15:16:08;19.10;79.20
10133;DHT22;5106;50.926;7.080;2022-09-09T15:18:34;19.10;79.10
10133;DHT22;5106;50.926;7.080;2022-09-09T15:21:03;19.10;79.50
10133;DHT22;5106;50.926;7.080;2022-09-09T15:23:32;19.20;79.50
10133;DHT22;5106;50.926;7.080;2022-09-09T15:25:57;19.20;79.00
10133;DHT22;5106;50.926;7.080;2022-09-09T15:28:23;19.20;79.10
10133;DHT22;5106;50.926;7.080;2022-09-09T15:30:50;19.30;78.30
10133;DHT22;5106;50.926;7.080;2022-09-09T15:33:18;19.30;77.80
10133;DHT22;5106;50.926;7.080;2022-09-09T15:35:45;19.30;78.10
10133;DHT22;5106;50.926;7.080;2022-09-09T15:38:11;19.30;77.50
10133;DHT22;5106;50.926;7.080;2022-09-09T15:40:41;19.30;77.80
10133;DHT22;5106;50.926;7.080;2022-09-09T15:43:07;19.20;79.30
10133;DHT22;5106;50.926;7.080;2022-09-09T15:45:33;18.90;80.20
10133;DHT22;5106;50.926;7.080;2022-09-09T15:48:00;18.60;81.10
10133;DHT22;5106;50.926;7.080;2022-09-09T15:50:26;18.40;81.70
10133;DHT22;5106;50.926;7.080;2022-09-09T15:52:52;18.30;83.00
10133;DHT22;5106;50.926;7.080;2022-09-09T15:55:18;18.20;83.50
10133;DHT22;5106;50.926;7.080;2022-09-09T15:57:45;18.10;84.00
10133;DHT22;5106;50.926;7.080;2022-09-09T16:00:12;18.00;83.90
10133;DHT22;5106;50.926;7.080;2022-09-09T16:02:38;17.90;83.50
10133;DHT22;5106;50.926;7.080;2022-09-09T16:05:04;17.70;82.20
10133;DHT22;5106;50.926;7.080;2022-09-09T16:07:30;17.50;82.00
10133;DHT22;5106;50.926;7.080;2022-09-09T16:09:56;17.20;82.10
10133;DHT22;5106;50.926;7.080;2022-09-09T16:12:21;17.10;82.90
10133;DHT22;5106;50.926;7.080;2022-09-09T16:14:47;16.80;83.10
10133;DHT22;5106;50.926;7.080;2022-09-09T16:17:13;16.70;83.60
10133;DHT22;5106;50.926;7.080;2022-09-09T16:19:39;16.50;84.10
10133;DHT22;5106;50.926;7.080;2022-09-09T16:22:05;16.50;84.80
10133;DHT22;5106;50.926;7.080;2022-09-09T16:24:32;16.50;85.10
10133;DHT22;5106;50.926;7.080;2022-09-09T16:26:57;16.50;85.40
10133;DHT22;5106;50.926;7.080;2022-09-09T16:29:23;16.50;85.50
10133;DHT22;5106;50.926;7.080;2022-09-09T16:31:52;16.50;85.70
10133;DHT22;5106;50.926;7.080;2022-09-09T16:34:19;16.60;85.90
10133;DHT22;5106;50.926;7.080;2022-09-09T16:36:45;16.60;86.00
10133;DHT22;5106;50.926;7.080;2022-09-09T16:39:19;16.60;86.00
10133;DHT22;5106;50.926;7.080;2022-09-09T16:41:47;16.70;86.00
10133;DHT22;5106;50.926;7.080;2022-09-09T16:44:14;16.80;85.90
10133;DHT22;5106;50.926;7.080;2022-09-09T16:46:42;16.90;85.90
10133;DHT22;5106;50.926;7.080;2022-09-09T16:49:13;16.90;85.80
10133;DHT22;5106;50.926;7.080;2022-09-09T16:54:08;17.00;85.70
10133;DHT22;5106;50.926;7.080;2022-09-09T16:56:36;17.10;85.80
10133;DHT22;5106;50.926;7.080;2022-09-09T16:59:06;17.20;86.00
10133;DHT22;5106;50.926;7.080;2022-09-09T17:01:35;17.30;85.90
10133;DHT22;5106;50.926;7.080;2022-09-09T17:04:04;17.40;85.50
10133;DHT22;5106;50.926;7.080;2022-09-09T17:06:32;17.40;85.30
10133;DHT22;5106;50.926;7.080;2022-09-09T17:09:02;17.30;85.20
10133;DHT22;5106;50.926;7.080;2022-09-09T17:11:28;17.30;85.10
10133;DHT22;5106;50.926;7.080;2022-09-09T17:13:55;17.30;85.10
10133;DHT22;5106;50.926;7.080;2022-09-09T17:16:23;17.30;85.20
10133;DHT22;5106;50.926;7.080;2022-09-09T17:18:54;17.20;85.30
10133;DHT22;5106;50.926;7.080;2022-09-09T17:21:22;17.30;85.40
10133;DHT22;5106;50.926;7.080;2022-09-09T17:23:49;17.30;85.40
10133;DHT22;5106;50.926;7.080;2022-09-09T17:26:16;17.20;85.40
10133;DHT22;5106;50.926;7.080;2022-09-09T17:28:43;17.20;85.40
10133;DHT22;5106;50.926;7.080;2022-09-09T17:31:12;17.20;85.50
10133;DHT22;5106;50.926;7.080;2022-09-09T17:33:41;17.10;85.50
10133;DHT22;5106;50.926;7.080;2022-09-09T17:38:47;17.10;85.70
10133;DHT22;5106;50.926;7.080;2022-09-09T17:41:13;17.10;85.70
10133;DHT22;5106;50.926;7.080;2022-09-09T17:43:40;17.00;85.90
10133;DHT22;5106;50.926;7.080;2022-09-09T17:46:25;17.00;85.90
10133;DHT22;5106;50.926;7.080;2022-09-09T17:48:55;17.00;85.80
10133;DHT22;5106;50.926;7.080;2022-09-09T17:51:24;17.00;85.90
10133;DHT22;5106;50.926;7.080;2022-09-09T17:53:53;16.90;85.90
10133;DHT22;5106;50.926;7.080;2022-09-09T17:56:21;16.90;85.80
10133;DHT22;5106;50.926;7.080;2022-09-09T17:58:48;16.90;85.90
10133;DHT22;5106;50.926;7.080;2022-09-09T18:01:19;16.90;85.90
10133;DHT22;5106;50.926;7.080;2022-09-09T18:03:46;16.90;86.00
10133;DHT22;5106;50.926;7.080;2022-09-09T18:06:21;16.90;86.00
10133;DHT22;5106;50.926;7.080;2022-09-09T18:08:57;16.90;86.10
10133;DHT22;5106;50.926;7.080;2022-09-09T18:11:26;16.90;86.10
10133;DHT22;5106;50.926;7.080;2022-09-09T18:13:57;16.90;86.20
10133;DHT22;5106;50.926;7.080;2022-09-09T18:16:25;16.90;86.20
10133;DHT22;5106;50.926;7.080;2022-09-09T18:18:54;16.90;86.20
10133;DHT22;5106;50.926;7.080;2022-09-09T18:21:20;16.90;86.30
10133;DHT22;5106;50.926;7.080;2022-09-09T18:23:48;16.90;86.30
10133;DHT22;5106;50.926;7.080;2022-09-09T18:26:21;16.90;86.40
10133;DHT22;5106;50.926;7.080;2022-09-09T18:28:50;16.90;86.40
10133;DHT22;5106;50.926;7.080;2022-09-09T18:31:18;16.90;86.40
10133;DHT22;5106;50.926;7.080;2022-09-09T18:33:46;16.90;86.60